Time;durP1;ratioP1;P1;durP2;ratioP2;P2;SDS_P1;SDS_P2;PMS_P1;PMS_P2;Temp;Humidity;BMP_temperature;BMP_pressure;BME280_temperature;BME280_humidity;BME280_pressure;Samples;Min_cycle;Max_cycle;Signal;HPM_P1;HPM_P2
2021/05/29 00:00:00;;;;;;;8.77;5.43;;;;;;;9.63;78.73;96757.94;5068829;28;20028;-76
2021/05/29 00:02:26;;;;;;;8.43;4.90;;;;;;;9.63;79.93;96760.56;5056584;28;20035;-75
2021/05/29 00:04:51;;;;;;;7.73;4.60;;;;;;;9.64;79.46;96764.03;5079237;28;20023;-75
2021/05/29 00:07:17;;;;;;;8.67;4.60;;;;;;;9.61;79.91;96762.50;5057128;28;20043;-75
2021/05/29 00:09:43;;;;;;;8.60;4.53;;;;;;;9.52;79.70;96763.34;5063580;28;20056;-75
2021/05/29 00:12:11;;;;;;;6.43;4.60;;;;;;;9.44;80.00;96757.97;5072417;28;20374;-75
2021/05/29 00:14:38;;;;;;;8.57;5.70;;;;;;;9.35;81.17;96761.41;5054431;28;20032;-74
2021/05/29 00:17:06;;;;;;;9.23;5.93;;;;;;;9.26;81.10;96760.47;5060985;28;20558;-75
2021/05/29 00:19:32;;;;;;;14.10;6.53;;;;;;;9.19;81.55;96762.81;5063070;28;20077;-74
2021/05/29 00:21:58;;;;;;;8.20;4.70;;;;;;;9.06;82.48;96758.81;5060615;28;20070;-75
2021/05/29 00:24:24;;;;;;;6.30;4.13;;;;;;;9.10;82.56;96761.00;5074172;28;20477;-76
2021/05/29 00:26:50;;;;;;;6.20;3.80;;;;;;;9.06;83.18;96754.38;5080280;28;20032;-74
2021/05/29 00:29:16;;;;;;;6.83;4.20;;;;;;;9.00;83.05;96754.91;5079979;28;20430;-75
2021/05/29 00:31:42;;;;;;;7.47;4.80;;;;;;;8.94;83.54;96750.22;5055188;28;20424;-74
2021/05/29 00:34:08;;;;;;;7.20;4.70;;;;;;;9.04;83.14;96750.22;5065687;28;20027;-75
2021/05/29 00:36:33;;;;;;;9.57;5.13;;;;;;;9.11;82.79;96757.41;5061514;28;20095;-75
2021/05/29 00:38:59;;;;;;;8.17;4.63;;;;;;;9.09;82.52;96756.72;5066816;28;20020;-75
2021/05/29 00:41:25;;;;;;;7.30;4.23;;;;;;;9.13;82.74;96747.59;5062322;28;20023;-75
2021/05/29 00:43:51;;;;;;;6.43;3.60;;;;;;;9.08;82.46;96747.19;5054092;28;20032;-75
2021/05/29 00:46:16;;;;;;;8.93;4.33;;;;;;;9.13;83.02;96734.50;5066142;28;20031;-75
2021/05/29 00:48:42;;;;;;;6.53;4.50;;;;;;;9.17;82.16;96737.66;5071964;28;20397;-75
2021/05/29 00:51:11;;;;;;;7.53;4.30;;;;;;;9.18;82.45;96727.00;5065413;28;20169;-74
2021/05/29 00:53:37;;;;;;;7.00;4.07;;;;;;;9.13;82.07;96728.41;5060858;28;20026;-75
2021/05/29 00:56:05;;;;;;;5.20;3.70;;;;;;;8.96;83.25;96733.38;5053852;28;20587;-75
2021/05/29 00:58:31;;;;;;;5.67;4.17;;;;;;;9.00;83.29;96730.47;5065745;28;20023;-75
2021/05/29 01:00:58;;;;;;;6.53;4.63;;;;;;;9.06;83.02;96727.31;5070979;28;20032;-75
2021/05/29 01:03:26;;;;;;;8.97;5.13;;;;;;;8.85;84.26;96727.41;5064389;28;20069;-75
2021/05/29 01:05:52;;;;;;;8.93;5.10;;;;;;;8.89;83.92;96720.97;5072915;28;20122;-74
2021/05/29 01:08:17;;;;;;;7.60;4.13;;;;;;;8.65;85.78;96727.41;5082732;28;20037;-75
2021/05/29 01:10:44;;;;;;;6.30;3.60;;;;;;;8.58;85.07;96718.41;5078444;28;20088;-75
2021/05/29 01:13:12;;;;;;;6.77;3.30;;;;;;;8.46;86.13;96722.13;5068909;28;20039;-75
2021/05/29 01:15:47;;;;;;;6.00;3.50;;;;;;;8.43;86.99;96717.13;5053922;28;20032;-74
2021/05/29 01:18:16;;;;;;;5.20;3.37;;;;;;;8.39;87.06;96721.00;5058210;28;20572;-74
2021/05/29 01:20:46;;;;;;;6.77;3.67;;;;;;;8.29;87.51;96722.72;5084005;28;20095;-74
2021/05/29 01:23:13;;;;;;;6.33;3.83;;;;;;;8.25;87.15;96712.50;5062396;28;20062;-74
2021/05/29 01:25:47;;;;;;;6.50;4.13;;;;;;;8.21;87.28;96718.13;5057682;28;20031;-75
2021/05/29 01:28:18;;;;;;;5.00;3.17;;;;;;;8.33;86.72;96714.47;5075051;28;20118;-75
2021/05/29 01:31:06;;;;;;;5.97;3.80;;;;;;;8.47;86.85;96721.97;5061385;28;20513;-75
2021/05/29 01:33:34;;;;;;;8.70;3.40;;;;;;;8.32;86.51;96711.97;5060711;28;20039;-74
2021/05/29 01:36:04;;;;;;;8.13;4.07;;;;;;;8.35;86.72;96720.41;5077024;28;20077;-75
2021/05/29 01:38:30;;;;;;;5.90;3.73;;;;;;;8.49;86.18;96719.22;5067503;28;20109;-75
2021/05/29 01:41:11;;;;;;;7.83;3.93;;;;;;;8.54;84.89;96726.69;5059461;28;20036;-74
2021/05/29 01:43:41;;;;;;;5.97;3.97;;;;;;;8.57;85.18;96724.63;5058412;28;20044;-74
2021/05/29 01:46:11;;;;;;;8.73;4.60;;;;;;;8.59;85.29;96722.69;5072063;28;20063;-75
2021/05/29 01:48:41;;;;;;;9.70;3.97;;;;;;;8.63;84.45;96726.69;5079387;28;20027;-75
2021/05/29 01:51:07;;;;;;;6.43;4.07;;;;;;;8.61;83.88;96720.75;5056408;28;20027;-74
2021/05/29 01:53:33;;;;;;;7.20;3.83;;;;;;;8.63;83.54;96725.88;5080167;28;20111;-75
2021/05/29 01:56:00;;;;;;;8.80;4.10;;;;;;;8.52;83.73;96731.22;5062854;28;20562;-75
2021/05/29 01:58:26;;;;;;;5.50;4.17;;;;;;;8.50;83.83;96731.38;5055618;28;20024;-74
2021/05/29 02:00:52;;;;;;;9.17;4.27;;;;;;;8.48;83.75;96726.28;5073786;28;20073;-74
2021/05/29 02:03:18;;;;;;;8.37;3.93;;;;;;;8.45;84.23;96729.16;5077876;28;20448;-75
2021/05/29 02:05:44;;;;;;;6.80;4.27;;;;;;;8.54;84.06;96730.13;5061675;28;20161;-75
2021/05/29 02:08:12;;;;;;;9.10;4.20;;;;;;;8.57;83.87;96726.41;5070476;28;20036;-75
2021/05/29 02:10:40;;;;;;;8.37;4.13;;;;;;;8.59;83.72;96725.31;5066739;28;20023;-75
2021/05/29 02:13:09;;;;;;;6.20;4.10;;;;;;;8.57;83.91;96726.41;5084726;28;20038;-75
2021/05/29 02:15:37;;;;;;;8.57;4.43;;;;;;;8.43;83.63;96733.69;5091380;28;20012;-75
2021/05/29 02:18:05;;;;;;;8.77;4.50;;;;;;;8.53;83.61;96725.84;5065942;28;20516;-75
2021/05/29 02:20:37;;;;;;;5.20;3.50;;;;;;;8.58;83.05;96721.03;5063271;28;20012;-75
2021/05/29 02:23:03;;;;;;;8.40;4.93;;;;;;;8.46;83.46;96724.75;5085271;28;20032;-75
2021/05/29 02:25:29;;;;;;;7.17;4.87;;;;;;;8.35;83.70;96735.28;5067092;28;20028;-75
2021/05/29 02:27:55;;;;;;;6.63;4.37;;;;;;;8.01;86.08;96746.88;5068469;28;20035;-75
2021/05/29 02:30:22;;;;;;;9.17;4.07;;;;;;;8.03;86.83;96754.59;5062332;28;20080;-75
2021/05/29 02:36:35;;;;;;;6.90;4.27;;;;;;;7.73;89.56;96742.31;5088533;28;20731;-75
2021/05/29 02:39:00;;;;;;;6.47;3.80;;;;;;;7.84;88.13;96730.94;5060637;28;20071;-75
2021/05/29 02:41:26;;;;;;;7.80;4.13;;;;;;;7.94;86.71;96742.28;5075893;28;20019;-75
2021/05/29 02:43:52;;;;;;;6.77;3.63;;;;;;;7.80;87.01;96738.22;5066542;28;20043;-75
2021/05/29 02:46:55;;;;;;;7.03;3.97;;;;;;;7.94;86.22;96743.09;5079150;28;20032;-75
2021/05/29 02:49:22;;;;;;;9.23;3.93;;;;;;;7.87;86.36;96744.59;5078835;28;20114;-74
2021/05/29 02:51:48;;;;;;;8.90;4.63;;;;;;;7.93;86.14;96753.72;5066783;28;20502;-75
2021/05/29 02:54:14;;;;;;;7.67;4.00;;;;;;;7.85;86.19;96751.75;5069202;28;20134;-75
2021/05/29 02:56:40;;;;;;;6.87;4.57;;;;;;;7.71;87.00;96745.06;5066203;28;20019;-75
2021/05/29 02:59:05;;;;;;;9.00;5.30;;;;;;;7.71;87.17;96742.47;5066640;28;20039;-75
2021/05/29 03:01:31;;;;;;;6.87;4.00;;;;;;;7.61;87.24;96746.78;5078646;28;20020;-75
2021/05/29 03:03:57;;;;;;;8.37;4.47;;;;;;;7.61;87.35;96745.94;5068185;28;20068;-75
2021/05/29 03:06:22;;;;;;;7.67;4.33;;;;;;;7.56;87.57;96741.09;5063715;28;20020;-74
2021/05/29 03:08:48;;;;;;;7.27;4.80;;;;;;;7.61;87.46;96741.53;5060665;28;20032;-75
2021/05/29 03:11:14;;;;;;;7.00;4.50;;;;;;;7.61;87.57;96745.94;5065244;28;20028;-74
2021/05/29 03:13:40;;;;;;;7.57;4.63;;;;;;;7.61;87.78;96746.78;5055259;28;20038;-75
2021/05/29 03:16:05;;;;;;;7.40;4.70;;;;;;;7.52;88.28;96750.19;5059462;28;20397;-75
2021/05/29 03:18:31;;;;;;;7.57;4.33;;;;;;;7.54;87.92;96746.47;5053132;28;20028;-75
2021/05/29 03:20:58;;;;;;;8.37;5.80;;;;;;;7.59;87.64;96745.25;5064233;28;20078;-75
2021/05/29 03:23:31;;;;;;;8.83;4.90;;;;;;;7.55;86.97;96750.75;5068033;28;20023;-75
2021/05/29 03:25:57;;;;;;;11.57;4.90;;;;;;;7.52;86.99;96750.19;5065610;28;20040;-75
2021/05/29 03:28:22;;;;;;;9.20;4.90;;;;;;;7.56;87.54;96754.19;5078664;28;20621;-75
2021/05/29 03:30:48;;;;;;;6.37;4.37;;;;;;;7.62;86.77;96758.94;5074193;28;20032;-74
2021/05/29 03:33:14;;;;;;;6.80;4.20;;;;;;;7.54;87.11;96758.72;5061809;28;20131;-74
2021/05/29 03:35:41;;;;;;;11.70;8.60;;;;;;;7.38;88.20;96769.66;5062398;28;20486;-74
2021/05/29 03:38:07;;;;;;;14.40;9.77;;;;;;;7.41;88.21;96768.53;5065396;28;20036;-75
2021/05/29 03:40:36;;;;;;;10.10;5.57;;;;;;;7.40;88.63;96767.72;5063407;28;20016;-75
2021/05/29 03:43:02;;;;;;;7.73;4.97;;;;;;;7.40;88.82;96772.94;5076545;28;20077;-74
2021/05/29 03:45:28;;;;;;;7.50;4.37;;;;;;;7.58;88.27;96775.84;5063388;28;20023;-74
2021/05/29 03:47:53;;;;;;;5.70;3.87;;;;;;;7.65;87.88;96771.75;5051187;28;20855;-74
2021/05/29 03:50:25;;;;;;;5.97;3.73;;;;;;;7.66;87.22;96773.41;5075357;28;20062;-75
2021/05/29 03:52:51;;;;;;;6.57;4.23;;;;;;;7.78;86.91;96775.00;5063869;28;20047;-75
2021/05/29 03:55:18;;;;;;;6.90;4.47;;;;;;;7.82;86.85;96780.00;5075338;28;20482;-75
2021/05/29 03:57:45;;;;;;;7.77;4.60;;;;;;;7.86;85.96;96781.38;5063962;28;20071;-75
2021/05/29 04:00:13;;;;;;;7.03;4.67;;;;;;;7.89;85.67;96773.28;5089476;28;20024;-75
2021/05/29 04:02:40;;;;;;;7.37;4.60;;;;;;;7.98;85.03;96770.72;5087675;28;20031;-74
2021/05/29 04:05:06;;;;;;;11.67;4.67;;;;;;;7.96;85.62;96771.81;5074069;28;20020;-75
2021/05/29 04:07:33;;;;;;;7.27;4.20;;;;;;;7.94;86.06;96776.31;5060920;28;20025;-74
2021/05/29 04:10:00;;;;;;;6.63;4.30;;;;;;;7.96;85.47;96775.25;5049327;28;20632;-74
2021/05/29 04:12:26;;;;;;;6.77;3.80;;;;;;;8.00;85.71;96781.06;5061949;28;20803;-74
2021/05/29 04:14:52;;;;;;;6.47;4.00;;;;;;;7.95;86.41;96785.88;5060546;28;20115;-74
2021/05/29 04:17:18;;;;;;;8.17;4.70;;;;;;;8.03;86.12;96786.84;5064153;28;20564;-75
2021/05/29 04:19:43;;;;;;;5.80;3.37;;;;;;;8.22;85.11;96783.50;5068794;28;20028;-75
2021/05/29 04:22:09;;;;;;;6.50;4.03;;;;;;;8.30;84.84;96782.84;5073434;28;20032;-75
2021/05/29 04:24:35;;;;;;;5.97;4.10;;;;;;;8.26;83.96;96777.03;5066956;28;20084;-75
2021/05/29 04:27:01;;;;;;;7.77;3.97;;;;;;;8.34;83.02;96771.13;5049970;28;20032;-75
2021/05/29 04:29:27;;;;;;;6.70;4.13;;;;;;;8.42;82.43;96778.41;5075754;28;20103;-75
2021/05/29 04:31:53;;;;;;;6.10;3.93;;;;;;;8.46;82.55;96782.41;5052564;28;20866;-74
2021/05/29 04:34:20;;;;;;;7.00;3.77;;;;;;;8.43;82.49;96787.91;5080941;28;20131;-75
2021/05/29 04:36:45;;;;;;;7.07;4.03;;;;;;;8.42;82.68;96789.69;5070211;28;20114;-75
2021/05/29 04:39:11;;;;;;;10.80;6.57;;;;;;;8.51;81.63;96788.06;5058237;28;20098;-75
2021/05/29 04:41:37;;;;;;;11.83;5.97;;;;;;;8.70;81.13;96792.53;5083739;28;20481;-75
2021/05/29 04:44:03;;;;;;;16.47;11.40;;;;;;;8.80;81.45;96792.56;5062294;28;20086;-75
2021/05/29 04:46:28;;;;;;;9.40;6.07;;;;;;;8.94;81.28;96792.19;5079749;28;20027;-74
2021/05/29 04:48:54;;;;;;;6.60;3.80;;;;;;;9.08;81.14;96804.91;5063586;28;20043;-75
2021/05/29 04:51:20;;;;;;;5.77;3.77;;;;;;;9.11;80.74;96809.06;5063785;28;20757;-75
2021/05/29 04:53:47;;;;;;;7.00;3.50;;;;;;;9.19;79.62;96804.78;5068248;28;20039;-75
2021/05/29 04:56:15;;;;;;;4.97;3.37;;;;;;;9.22;79.25;96801.03;5058437;28;20067;-75
2021/05/29 04:58:40;;;;;;;7.03;3.73;;;;;;;9.25;79.02;96798.16;5069641;28;20103;-75
2021/05/29 05:01:09;;;;;;;6.90;4.10;;;;;;;9.30;77.71;96795.97;5053927;28;20027;-75
2021/05/29 05:03:35;;;;;;;5.90;3.60;;;;;;;9.47;77.30;96789.19;5066789;28;20024;-75
2021/05/29 05:06:01;;;;;;;5.63;3.60;;;;;;;9.55;76.32;96791.13;5069380;28;20135;-75
2021/05/29 05:08:27;;;;;;;6.37;3.63;;;;;;;9.69;76.76;96793.31;5077129;28;20100;-75
2021/05/29 05:10:55;;;;;;;7.17;3.63;;;;;;;10.00;76.05;96796.59;5064657;28;20768;-75
2021/05/29 05:13:22;;;;;;;8.40;3.80;;;;;;;10.00;76.83;96801.03;5069167;28;20121;-75
2021/05/29 05:15:49;;;;;;;6.43;4.07;;;;;;;10.18;76.12;96795.84;5059687;28;20032;-75
2021/05/29 05:18:15;;;;;;;5.97;3.13;;;;;;;9.56;77.85;96801.50;5068028;28;20024;-75
2021/05/29 05:20:50;;;;;;;6.70;3.67;;;;;;;9.88;77.09;96800.34;5054541;28;20031;-75
2021/05/29 05:23:18;;;;;;;6.70;2.90;;;;;;;10.13;76.10;96798.91;5071837;28;20051;-75
2021/05/29 05:25:44;;;;;;;7.73;3.70;;;;;;;10.33;75.83;96791.84;5071872;28;20032;-75
2021/05/29 05:28:09;;;;;;;6.10;3.63;;;;;;;10.60;74.41;96793.66;5080463;28;20523;-75
2021/05/29 05:30:35;;;;;;;6.17;3.53;;;;;;;10.28;74.13;96797.50;5068330;28;20632;-75
2021/05/29 05:33:04;;;;;;;6.07;3.73;;;;;;;10.35;75.35;96797.75;5084856;28;20034;-75
2021/05/29 05:35:31;;;;;;;7.20;3.77;;;;;;;10.89;73.16;96785.59;5083828;28;20084;-75
2021/05/29 05:37:57;;;;;;;6.17;3.37;;;;;;;10.99;73.30;96791.63;5061181;28;20035;-76
2021/05/29 05:40:23;;;;;;;8.07;3.30;;;;;;;11.32;71.97;96794.59;5060506;28;20039;-75
2021/05/29 05:42:49;;;;;;;5.53;2.87;;;;;;;11.50;70.62;96802.50;5084121;28;20039;-75
2021/05/29 05:45:15;;;;;;;5.10;3.20;;;;;;;11.70;69.37;96790.84;5064665;28;20778;-75
2021/05/29 05:47:41;;;;;;;5.47;3.27;;;;;;;11.87;69.34;96790.97;5084406;28;20020;-75
2021/05/29 05:50:09;;;;;;;6.43;3.20;;;;;;;12.30;68.20;96784.81;5054972;28;20036;-75
2021/05/29 05:52:36;;;;;;;6.33;3.47;;;;;;;12.68;65.54;96788.81;5064245;28;20058;-75
2021/05/29 05:55:04;;;;;;;4.90;2.90;;;;;;;13.02;64.66;96795.06;5073165;28;20032;-75
2021/05/29 05:57:32;;;;;;;5.30;3.20;;;;;;;12.93;63.71;96789.72;5069552;28;20129;-76
2021/05/29 05:59:58;;;;;;;8.70;5.60;;;;;;;13.00;63.23;96797.00;5064207;28;20036;-75
2021/05/29 06:02:23;;;;;;;9.23;5.23;;;;;;;13.11;65.61;96799.34;5061723;28;20081;-75
2021/05/29 06:04:49;;;;;;;5.93;3.40;;;;;;;13.33;64.34;96805.88;5063801;28;20729;-75
2021/05/29 06:07:15;;;;;;;4.83;3.00;;;;;;;13.62;62.71;96800.97;5071543;28;20039;-75
2021/05/29 06:09:41;;;;;;;5.03;2.63;;;;;;;13.62;60.34;96803.59;5063183;28;20131;-76
2021/05/29 06:12:07;;;;;;;6.50;2.57;;;;;;;13.81;59.95;96810.38;5073860;28;20069;-75
2021/05/29 06:20:03;;;;;;;4.03;2.40;;;;;;;14.22;58.06;96799.78;5073985;28;20039;-75
2021/05/29 06:22:29;;;;;;;4.00;2.30;;;;;;;14.57;56.01;96801.19;5070610;28;20012;-75
2021/05/29 06:24:55;;;;;;;4.80;2.40;;;;;;;14.47;56.39;96807.66;5057292;28;20032;-75
2021/05/29 06:27:20;;;;;;;4.70;2.17;;;;;;;14.89;55.11;96802.09;5053854;28;20059;-75
2021/05/29 06:29:46;;;;;;;6.33;2.67;;;;;;;14.22;57.93;96810.38;5065266;28;20098;-75
2021/05/29 06:32:13;;;;;;;10.10;2.53;;;;;;;14.99;54.23;96793.91;5071116;28;20023;-76
2021/05/29 06:34:40;;;;;;;3.97;1.90;;;;;;;15.04;52.52;96800.34;5070068;28;20508;-75
2021/05/29 06:37:07;;;;;;;5.37;2.37;;;;;;;15.44;52.30;96802.94;5064183;28;20036;-76
2021/05/29 06:39:33;;;;;;;4.33;2.20;;;;;;;15.56;51.53;96804.22;5065479;28;20457;-75
2021/05/29 06:42:00;;;;;;;5.00;1.80;;;;;;;15.83;51.90;96799.38;5103344;28;20028;-75
2021/05/29 06:44:25;;;;;;;3.67;1.70;;;;;;;15.76;51.13;96799.25;5060258;28;20047;-75
2021/05/29 06:46:51;;;;;;;3.27;1.73;;;;;;;15.55;52.50;96805.19;5067433;28;20023;-75
2021/05/29 06:49:20;;;;;;;3.60;1.90;;;;;;;15.77;48.89;96815.00;5070169;28;20415;-75
2021/05/29 06:51:57;;;;;;;3.40;1.80;;;;;;;15.31;51.93;96816.78;5064573;28;20024;-75
2021/05/29 06:54:55;;;;;;;4.20;1.90;;;;;;;16.06;50.91;96816.09;5087870;28;20036;-75
2021/05/29 06:59:54;;;;;;;2.73;1.87;;;;;;;16.92;48.30;96806.75;5074693;28;20043;-75
2021/05/29 07:02:19;;;;;;;4.10;2.00;;;;;;;16.67;48.72;96806.19;5087951;28;20500;-75
2021/05/29 07:04:45;;;;;;;3.42;1.55;;;;;;;17.43;47.83;96811.22;5082952;28;20040;-75
2021/05/29 07:07:11;;;;;;;4.30;1.80;;;;;;;17.90;46.34;96823.19;5076390;28;20059;-76
2021/05/29 07:09:37;;;;;;;3.72;1.80;;;;;;;17.58;45.89;96817.34;5077084;28;20501;-75
2021/05/29 07:12:03;;;;;;;3.15;1.75;;;;;;;17.48;45.57;96821.31;5087494;28;20027;-76
2021/05/29 07:14:30;;;;;;;3.45;2.20;;;;;;;17.23;44.58;96823.47;5062563;28;20665;-76
2021/05/29 07:16:56;;;;;;;3.03;1.77;;;;;;;17.44;46.13;96810.25;5088351;28;20026;-76
2021/05/29 07:19:23;;;;;;;3.30;1.45;;;;;;;17.11;47.37;96816.00;5071758;28;20413;-76
2021/05/29 07:21:50;;;;;;;2.65;1.60;;;;;;;17.00;46.57;96821.78;5062826;28;20466;-76
2021/05/29 07:24:17;;;;;;;3.45;1.85;;;;;;;18.25;44.27;96812.66;5080063;28;20032;-76
2021/05/29 07:26:43;;;;;;;2.92;1.50;;;;;;;18.17;43.11;96808.28;5081993;28;20053;-76
2021/05/29 07:29:09;;;;;;;3.65;1.40;;;;;;;18.98;41.64;96803.31;5091655;28;20100;-77
2021/05/29 07:31:35;;;;;;;2.60;1.50;;;;;;;18.83;41.69;96805.25;5067082;28;20091;-75
2021/05/29 07:34:01;;;;;;;4.65;1.80;;;;;;;18.20;44.09;96807.06;5068671;28;20062;-75
2021/05/29 07:36:27;;;;;;;3.28;1.40;;;;;;;18.52;41.35;96798.50;5071282;28;20040;-76
2021/05/29 07:38:53;;;;;;;4.65;1.50;;;;;;;19.42;39.84;96796.69;5068239;28;20383;-76
2021/05/29 07:41:21;;;;;;;7.57;1.75;;;;;;;19.69;38.35;96796.78;5063429;28;20114;-76
2021/05/29 07:43:47;;;;;;;2.80;1.30;;;;;;;20.34;38.69;96787.13;5076836;28;20081;-77
2021/05/29 07:46:13;;;;;;;2.05;1.25;;;;;;;19.92;38.56;96788.38;5074062;28;20028;-75
2021/05/29 07:48:39;;;;;;;2.60;1.20;;;;;;;19.95;37.65;96794.16;5054470;28;20039;-76
2021/05/29 07:51:07;;;;;;;3.50;1.30;;;;;;;19.30;38.20;96800.94;5068162;28;20031;-75
2021/05/29 07:53:40;;;;;;;3.40;1.20;;;;;;;19.84;37.38;96789.41;5086971;28;20071;-77
2021/05/29 07:56:12;;;;;;;3.65;1.35;;;;;;;20.14;34.89;96800.50;5086020;28;20054;-76
2021/05/29 07:58:41;;;;;;;2.25;1.33;;;;;;;20.40;35.34;96791.66;5057576;28;20036;-76
2021/05/29 08:01:07;;;;;;;2.67;1.10;;;;;;;19.66;37.05;96799.84;5074115;28;20066;-76
2021/05/29 08:03:34;;;;;;;3.88;1.25;;;;;;;18.45;38.11;96802.97;5062533;28;20097;-76
2021/05/29 08:06:04;;;;;;;2.95;1.45;;;;;;;19.70;36.64;96795.75;5079895;28;20035;-75
2021/05/29 08:08:29;;;;;;;4.32;1.30;;;;;;;20.02;37.69;96802.97;5057476;28;20549;-75
2021/05/29 08:10:57;;;;;;;3.47;1.38;;;;;;;19.79;36.55;96797.19;5070912;28;20173;-76
2021/05/29 08:13:23;;;;;;;3.15;1.40;;;;;;;20.81;35.08;96798.59;5104358;28;20486;-75
2021/05/29 08:15:50;;;;;;;5.25;1.65;;;;;;;21.41;33.21;96783.16;5061825;28;20043;-76
2021/05/29 08:18:17;;;;;;;2.97;1.52;;;;;;;21.73;34.16;96791.22;5069224;28;20457;-75
2021/05/29 08:20:47;;;;;;;3.65;1.30;;;;;;;21.10;35.08;96793.78;5074753;28;20115;-76
2021/05/29 08:23:13;;;;;;;2.75;1.13;;;;;;;19.80;35.50;96798.84;5091240;28;20396;-76
2021/05/29 08:25:51;;;;;;;3.03;1.40;;;;;;;19.39;37.14;96798.94;5063737;28;20032;-75
2021/05/29 08:28:17;;;;;;;4.40;2.33;;;;;;;20.06;36.41;96795.38;5061797;28;20163;-76
2021/05/29 08:30:43;;;;;;;3.00;1.48;;;;;;;20.66;34.91;96790.81;5058836;28;20486;-76
2021/05/29 08:33:08;;;;;;;2.85;1.48;;;;;;;21.45;33.90;96793.44;5055810;28;20035;-75
2021/05/29 08:35:35;;;;;;;3.53;1.40;;;;;;;21.05;34.96;96793.56;5069367;28;20031;-75
2021/05/29 08:38:04;;;;;;;3.88;1.30;;;;;;;18.76;39.04;96794.56;5071015;28;20119;-75
2021/05/29 08:40:30;;;;;;;4.20;1.65;;;;;;;19.36;37.47;96794.81;5059991;28;20027;-75
2021/05/29 08:42:56;;;;;;;2.63;1.30;;;;;;;19.84;36.68;96800.06;5066888;28;20032;-76
2021/05/29 08:45:23;;;;;;;3.00;1.25;;;;;;;20.14;37.89;96797.00;5055136;28;20028;-75
2021/05/29 08:47:50;;;;;;;1.90;1.20;;;;;;;21.85;33.47;96796.69;5055699;28;20036;-75
2021/05/29 08:50:17;;;;;;;3.05;1.48;;;;;;;22.88;33.12;96785.47;5066027;28;20374;-76
2021/05/29 08:52:43;;;;;;;1.75;1.27;;;;;;;24.29;31.42;96785.22;5054183;28;20040;-76
2021/05/29 08:55:15;;;;;;;3.50;1.25;;;;;;;23.71;30.16;96782.19;5062020;28;20020;-75
2021/05/29 08:57:43;;;;;;;2.10;1.20;;;;;;;21.71;31.56;96787.91;5067928;28;20401;-76
2021/05/29 09:00:12;;;;;;;3.83;1.30;;;;;;;20.69;35.98;96793.06;5068718;28;20031;-76
2021/05/29 09:03:07;;;;;;;3.50;1.30;;;;;;;22.40;31.80;96790.69;5064050;28;20043;-76
2021/05/29 09:05:38;;;;;;;3.53;1.25;;;;;;;21.14;32.58;96789.63;5063825;28;20437;-76
2021/05/29 09:08:09;;;;;;;1.60;1.00;;;;;;;20.98;35.29;96795.44;5067786;28;20122;-76
2021/05/29 09:10:39;;;;;;;1.90;1.20;;;;;;;22.73;30.04;96783.16;5063469;28;20089;-76
2021/05/29 09:13:19;;;;;;;66.20;10.35;;;;;;;18.21;40.06;96800.72;5065246;28;20032;-76
2021/05/29 09:15:52;;;;;;;3.25;1.13;;;;;;;18.80;38.31;96798.47;5055853;28;20043;-75
2021/05/29 09:18:35;;;;;;;2.08;1.30;;;;;;;20.70;33.44;96792.03;5061131;28;20036;-76
2021/05/29 09:21:33;;;;;;;1.63;0.88;;;;;;;22.03;31.70;96812.84;5051557;28;20126;-75
2021/05/29 09:24:04;;;;;;;1.23;0.80;;;;;;;22.99;28.43;96790.13;5061096;28;20028;-76
2021/05/29 09:26:54;;;;;;;3.85;1.17;;;;;;;19.81;34.14;96813.81;5058850;28;20512;-76
2021/05/29 09:29:26;;;;;;;2.72;1.00;;;;;;;20.34;33.43;96803.16;5061276;28;20105;-76
2021/05/29 09:31:55;;;;;;;0.93;0.60;;;;;;;20.93;32.98;96815.63;5051717;28;20425;-76
2021/05/29 09:34:56;;;;;;;3.28;1.30;;;;;;;20.88;31.54;96810.06;5068140;28;20039;-75
2021/05/29 09:37:28;;;;;;;12.00;2.33;;;;;;;22.60;29.96;96812.75;5060019;28;20082;-76
2021/05/29 09:39:59;;;;;;;2.70;1.05;;;;;;;20.77;31.78;96812.59;5068911;28;20032;-76
2021/05/29 09:42:28;;;;;;;0.95;0.57;;;;;;;20.06;34.50;96818.59;5058117;28;20078;-76
2021/05/29 09:44:54;;;;;;;2.05;1.00;;;;;;;19.71;35.68;96819.53;5054088;28;20529;-76
2021/05/29 09:47:20;;;;;;;2.78;1.23;;;;;;;20.13;35.23;96814.06;5067681;28;20028;-75
2021/05/29 09:49:54;;;;;;;2.67;1.00;;;;;;;19.59;35.56;96820.34;5071549;28;20612;-76
2021/05/29 09:52:37;;;;;;;2.95;1.20;;;;;;;19.45;34.46;96812.28;5072057;28;20036;-76
2021/05/29 09:55:13;;;;;;;1.13;0.70;;;;;;;22.30;29.93;96808.13;5067183;28;20051;-76
2021/05/29 09:57:52;;;;;;;8.32;1.27;;;;;;;21.48;30.78;96809.06;5072421;28;20027;-76
2021/05/29 10:00:46;;;;;;;3.30;1.23;;;;;;;20.10;33.58;96819.81;5062521;28;20688;-76
2021/05/29 10:03:12;;;;;;;2.28;1.00;;;;;;;19.16;34.70;96826.75;5077505;28;20136;-76
2021/05/29 10:05:41;;;;;;;2.03;1.10;;;;;;;19.36;34.76;96826.81;5069579;28;20078;-75
2021/05/29 10:08:12;;;;;;;2.33;1.38;;;;;;;19.68;35.76;96819.13;5061371;28;20039;-76
2021/05/29 10:10:38;;;;;;;1.35;0.80;;;;;;;19.42;36.29;96820.69;5061057;28;20074;-75
2021/05/29 10:13:04;;;;;;;1.55;0.95;;;;;;;20.48;34.96;96817.31;5067888;28;20028;-75
2021/05/29 10:15:30;;;;;;;2.30;1.10;;;;;;;22.72;30.96;96816.38;5071608;28;20475;-75
2021/05/29 10:17:58;;;;;;;3.00;1.10;;;;;;;21.06;33.27;96817.44;5065363;28;20768;-76
2021/05/29 10:20:24;;;;;;;2.13;0.95;;;;;;;19.14;36.30;96822.63;5066735;28;20020;-76
2021/05/29 10:23:18;;;;;;;1.95;1.00;;;;;;;19.08;37.43;96819.75;5055803;28;20115;-75
2021/05/29 10:25:44;;;;;;;3.65;1.48;;;;;;;18.72;39.21;96827.13;5069041;28;20059;-76
2021/05/29 10:28:12;;;;;;;2.65;1.25;;;;;;;18.97;38.72;96822.13;5065593;28;20116;-75
2021/05/29 10:30:38;;;;;;;3.10;1.20;;;;;;;18.64;38.54;96827.25;5052076;28;20040;-76
2021/05/29 10:33:19;;;;;;;5.78;2.00;;;;;;;20.23;37.54;96812.63;5081470;28;20099;-76
2021/05/29 10:35:46;;;;;;;11.70;2.55;;;;;;;22.20;32.35;96818.50;5094870;28;20047;-75
2021/05/29 10:38:13;;;;;;;2.25;1.25;;;;;;;22.07;31.85;96818.56;5067584;28;20033;-76
2021/05/29 10:40:48;;;;;;;1.70;1.00;;;;;;;20.53;34.17;96822.09;5064915;28;20046;-76
2021/05/29 10:43:26;;;;;;;3.08;1.20;;;;;;;20.13;35.01;96814.88;5074652;28;20029;-76
2021/05/29 10:45:54;;;;;;;2.05;1.15;;;;;;;20.37;35.34;96816.09;5068139;28;20529;-76
2021/05/29 10:48:29;;;;;;;4.07;1.23;;;;;;;20.22;35.52;96813.66;5065377;28;20800;-76
2021/05/29 10:51:12;;;;;;;2.28;1.10;;;;;;;18.59;38.53;96826.00;5060341;28;20028;-75
2021/05/29 10:53:49;;;;;;;3.83;1.10;;;;;;;19.69;36.64;96821.63;5080308;28;20036;-75
2021/05/29 10:56:15;;;;;;;1.30;0.90;;;;;;;18.85;36.61;96821.88;5064861;28;20036;-75
2021/05/29 10:59:12;;;;;;;4.15;1.15;;;;;;;19.23;37.47;96816.91;5057081;28;20043;-76
2021/05/29 11:01:48;;;;;;;2.45;1.30;;;;;;;20.63;35.46;96817.16;5072648;28;20055;-75
2021/05/29 11:04:18;;;;;;;2.83;1.60;;;;;;;21.81;33.31;96815.03;5094240;28;20085;-75
2021/05/29 11:07:33;;;;;;;2.47;1.17;;;;;;;21.88;30.66;96810.44;5066087;28;20023;-75
2021/05/29 11:09:59;;;;;;;1.35;0.75;;;;;;;24.29;27.01;96793.28;5060766;28;20126;-76
2021/05/29 11:12:49;;;;;;;2.03;0.95;;;;;;;21.75;30.86;96807.84;5104555;28;20024;-75
2021/05/29 11:15:17;;;;;;;1.80;0.90;;;;;;;20.17;34.99;96809.94;5059091;28;20073;-76
2021/05/29 11:18:07;;;;;;;1.98;1.10;;;;;;;19.74;34.40;96815.66;5104290;28;20043;-75
2021/05/29 11:20:52;;;;;;;2.05;0.82;;;;;;;19.32;36.06;96814.91;5056314;28;20036;-75
2021/05/29 11:23:26;;;;;;;2.50;0.90;;;;;;;18.95;36.08;96822.34;5063555;28;20039;-75
2021/05/29 11:25:52;;;;;;;1.70;0.80;;;;;;;19.04;35.85;96812.31;5083398;28;20028;-76
2021/05/29 11:28:21;;;;;;;1.42;0.90;;;;;;;19.51;35.01;96814.13;5067937;28;20086;-75
2021/05/29 11:30:47;;;;;;;1.27;0.90;;;;;;;20.51;34.01;96803.59;5067391;28;20040;-75
2021/05/29 11:33:16;;;;;;;2.30;0.90;;;;;;;20.51;33.59;96808.94;5077080;28;20023;-75
2021/05/29 11:35:45;;;;;;;3.30;1.13;;;;;;;20.07;33.71;96804.19;5059997;28;20040;-75
2021/05/29 11:38:28;;;;;;;1.27;0.90;;;;;;;20.96;32.39;96806.38;5055849;28;20069;-75
2021/05/29 11:40:58;;;;;;;;;;;;;;;21.98;31.13;96807.28;5074958;28;20030;-74
2021/05/29 11:43:42;;;;;;;1.90;0.80;;;;;;;22.26;31.44;96796.16;5057943;28;19934;-75
2021/05/29 11:46:13;;;;;;;1.58;0.80;;;;;;;22.59;30.20;96800.41;5076545;28;20185;-75
2021/05/29 11:48:42;;;;;;;1.10;0.70;;;;;;;21.05;31.81;96805.09;5056976;28;20063;-75
2021/05/29 11:51:12;;;;;;;2.25;0.90;;;;;;;21.28;31.52;96803.78;5063438;28;20024;-75
2021/05/29 11:53:40;;;;;;;0.85;0.68;;;;;;;20.40;31.41;96807.69;5061258;28;20033;-75
2021/05/29 11:56:06;;;;;;;0.98;0.60;;;;;;;19.62;31.81;96812.75;5087611;28;20031;-74